createdAt,value
2018-11-11T00:00:15.048Z,0.00
2018-11-11T00:01:15.036Z,0.00
2018-11-11T00:02:15.048Z,0.00
2018-11-11T00:03:15.068Z,0.00
2018-11-11T00:04:15.027Z,0.00
2018-11-11T00:05:15.040Z,0.00
2018-11-11T00:06:15.024Z,0.00
2018-11-11T00:07:15.020Z,0.00
2018-11-11T00:08:15.015Z,0.00
2018-11-11T00:09:15.008Z,0.00
2018-11-11T00:10:15.008Z,0.00
2018-11-11T00:11:15.000Z,0.00
2018-11-11T00:12:15.004Z,0.00
2018-11-11T00:13:14.992Z,0.00
2018-11-11T00:14:14.982Z,0.00
2018-11-11T00:15:15.530Z,0.00
2018-11-11T00:16:14.999Z,0.00
2018-11-11T00:17:14.974Z,0.00
2018-11-11T00:18:14.983Z,0.00
2018-11-11T00:19:14.966Z,0.00
2018-11-11T00:20:14.963Z,0.00
2018-11-11T00:21:14.953Z,0.00
2018-11-11T00:22:14.946Z,0.00
2018-11-11T00:23:14.949Z,0.00
2018-11-11T00:24:14.948Z,0.00
2018-11-11T00:25:14.940Z,0.00
2018-11-11T00:26:14.939Z,0.00
2018-11-11T00:27:14.933Z,0.00
2018-11-11T00:28:14.930Z,0.00
2018-11-11T00:29:14.922Z,0.00
2018-11-11T00:30:14.919Z,0.00
2018-11-11T00:31:14.914Z,0.00
2018-11-11T00:32:14.908Z,0.00
2018-11-11T00:33:14.909Z,0.00
2018-11-11T00:34:14.904Z,0.00
2018-11-11T00:35:14.923Z,0.00
2018-11-11T00:36:14.891Z,0.00
2018-11-11T00:37:14.888Z,0.00
2018-11-11T00:38:14.885Z,0.00
2018-11-11T00:39:14.879Z,0.00
2018-11-11T00:40:14.877Z,0.00
2018-11-11T00:41:14.871Z,0.00
2018-11-11T00:42:14.864Z,0.00
2018-11-11T00:43:14.865Z,0.00
2018-11-11T00:44:14.862Z,0.00
2018-11-11T00:45:14.853Z,0.00
2018-11-11T00:46:14.887Z,0.00
2018-11-11T00:47:14.847Z,0.00
2018-11-11T00:48:14.840Z,0.00
2018-11-11T00:49:14.835Z,0.00
2018-11-11T00:50:14.836Z,0.00
2018-11-11T00:51:14.827Z,0.00
2018-11-11T00:52:14.823Z,0.00
2018-11-11T00:53:14.819Z,0.00
2018-11-11T00:54:14.846Z,0.00
2018-11-11T00:55:15.555Z,0.00
2018-11-11T00:56:14.801Z,0.00
2018-11-11T00:57:14.801Z,0.00
2018-11-11T00:58:14.802Z,0.00
2018-11-11T00:59:14.794Z,0.00
2018-11-11T01:00:14.789Z,0.00
2018-11-11T01:01:14.790Z,0.00
2018-11-11T01:02:14.789Z,0.00
2018-11-11T01:03:14.783Z,0.00
2018-11-11T01:04:14.775Z,0.00
2018-11-11T01:05:14.789Z,0.00
2018-11-11T01:06:14.767Z,0.00
2018-11-11T01:07:14.759Z,0.00
2018-11-11T01:08:14.758Z,0.00
2018-11-11T01:09:14.750Z,0.00
2018-11-11T01:10:14.753Z,0.00
2018-11-11T01:11:14.742Z,0.00
2018-11-11T01:12:14.745Z,0.00
2018-11-11T01:13:14.732Z,0.00
2018-11-11T01:14:14.731Z,0.00
2018-11-11T01:15:14.723Z,0.00
2018-11-11T01:16:14.724Z,0.00
2018-11-11T01:17:14.716Z,0.00
2018-11-11T01:18:14.713Z,0.00
2018-11-11T01:19:14.708Z,0.00
2018-11-11T01:20:14.707Z,0.00
2018-11-11T01:21:14.704Z,0.00
2018-11-11T01:22:14.697Z,0.00
2018-11-11T01:23:14.695Z,0.00
2018-11-11T01:24:14.680Z,0.00
2018-11-11T01:25:14.685Z,0.00
2018-11-11T01:26:14.679Z,0.00
2018-11-11T01:27:14.682Z,0.00
2018-11-11T01:28:14.673Z,0.00
2018-11-11T01:29:14.668Z,0.00
2018-11-11T01:30:14.668Z,0.00
2018-11-11T01:31:14.673Z,0.00
2018-11-11T01:32:14.653Z,0.00
2018-11-11T01:33:14.642Z,0.00
2018-11-11T01:34:14.644Z,0.00
2018-11-11T01:35:14.645Z,0.00
2018-11-11T01:36:14.634Z,0.00
2018-11-11T01:37:14.657Z,0.00
2018-11-11T01:38:14.630Z,0.00
2018-11-11T01:39:14.625Z,0.00
2018-11-11T01:40:14.624Z,0.00
2018-11-11T01:41:14.618Z,0.00
2018-11-11T01:42:14.608Z,0.00
2018-11-11T01:43:14.604Z,0.00
2018-11-11T01:44:14.602Z,0.00
2018-11-11T01:45:14.600Z,0.00
2018-11-11T01:46:14.596Z,0.00
2018-11-11T01:47:14.588Z,0.00
2018-11-11T01:48:14.586Z,0.00
2018-11-11T01:49:14.583Z,0.00
2018-11-11T01:50:14.570Z,0.00
2018-11-11T01:51:14.570Z,0.00
2018-11-11T01:52:14.563Z,0.00
2018-11-11T01:53:14.571Z,0.00
2018-11-11T01:54:14.554Z,0.00
2018-11-11T01:55:14.551Z,0.00
2018-11-11T01:56:14.545Z,0.00
2018-11-11T01:57:14.542Z,0.00
2018-11-11T01:58:14.541Z,0.00
2018-11-11T01:59:14.536Z,0.00
2018-11-11T02:00:14.535Z,0.00
2018-11-11T02:01:14.530Z,0.00
2018-11-11T02:02:14.524Z,0.00
2018-11-11T02:03:14.517Z,0.00
2018-11-11T02:04:14.510Z,0.00
2018-11-11T02:05:14.507Z,0.00
2018-11-11T02:06:14.499Z,0.00
2018-11-11T02:07:14.498Z,0.00
2018-11-11T02:08:14.490Z,0.00
2018-11-11T02:09:14.488Z,0.00
2018-11-11T02:10:14.480Z,0.00
2018-11-11T02:11:14.481Z,0.00
2018-11-11T02:12:14.470Z,0.00
2018-11-11T02:13:14.459Z,0.00
2018-11-11T02:14:14.460Z,0.00
2018-11-11T02:15:14.457Z,0.00
2018-11-11T02:16:14.438Z,0.00
2018-11-11T02:17:14.446Z,0.00
2018-11-11T02:18:14.444Z,0.00
2018-11-11T02:19:14.438Z,0.00
2018-11-11T02:20:14.428Z,0.00
2018-11-11T02:21:14.498Z,0.00
2018-11-11T02:22:14.418Z,0.00
2018-11-11T02:23:14.414Z,0.00
2018-11-11T02:24:14.410Z,0.00
2018-11-11T02:25:14.399Z,0.00
2018-11-11T02:26:14.400Z,0.00
2018-11-11T02:27:14.396Z,0.00
2018-11-11T02:28:14.389Z,0.00
2018-11-11T02:29:14.384Z,0.00
2018-11-11T02:30:14.381Z,0.00
2018-11-11T02:31:14.366Z,0.00
2018-11-11T02:32:14.371Z,0.00
2018-11-11T02:33:14.364Z,0.00
2018-11-11T02:34:14.365Z,0.00
2018-11-11T02:35:14.357Z,0.00
2018-11-11T02:36:14.349Z,0.00
2018-11-11T02:37:14.402Z,0.00
2018-11-11T02:38:14.341Z,0.00
2018-11-11T02:39:14.337Z,0.00
2018-11-11T02:40:14.343Z,0.00
2018-11-11T02:41:14.327Z,0.00
2018-11-11T02:42:14.318Z,0.00
2018-11-11T02:43:14.315Z,0.00
2018-11-11T02:44:14.313Z,0.00
2018-11-11T02:45:14.306Z,0.00
2018-11-11T02:46:14.296Z,0.00
2018-11-11T02:47:14.296Z,0.00
2018-11-11T02:48:14.292Z,0.00
2018-11-11T02:49:14.285Z,0.00
2018-11-11T02:50:14.283Z,0.00
2018-11-11T02:51:14.275Z,0.00
2018-11-11T02:52:14.278Z,0.00
2018-11-11T02:53:14.265Z,0.00
2018-11-11T02:54:14.262Z,0.00
2018-11-11T02:55:14.262Z,0.00
2018-11-11T02:56:14.252Z,0.00
2018-11-11T02:57:14.255Z,0.00
2018-11-11T02:58:14.238Z,0.00
2018-11-11T02:59:14.232Z,0.00
2018-11-11T03:00:14.230Z,0.00
2018-11-11T03:01:14.230Z,0.00
2018-11-11T03:02:14.224Z,0.00
2018-11-11T03:03:14.218Z,0.00
2018-11-11T03:04:14.271Z,0.00
2018-11-11T03:05:14.207Z,0.00
2018-11-11T03:06:14.216Z,0.00
2018-11-11T03:07:14.191Z,0.00
2018-11-11T03:08:14.199Z,0.00
2018-11-11T03:09:14.183Z,0.00
2018-11-11T03:10:14.206Z,0.00
2018-11-11T03:11:14.180Z,0.00
2018-11-11T03:12:14.165Z,0.00
2018-11-11T03:13:14.170Z,0.00
2018-11-11T03:14:14.170Z,0.00
2018-11-11T03:15:14.163Z,0.00
2018-11-11T03:16:14.174Z,0.00
2018-11-11T03:17:14.154Z,0.00
2018-11-11T03:18:14.147Z,0.00
2018-11-11T03:19:14.162Z,0.00
2018-11-11T03:20:14.152Z,0.00
2018-11-11T03:21:14.122Z,0.00
2018-11-11T03:22:14.129Z,0.00
2018-11-11T03:23:14.125Z,0.00
2018-11-11T03:24:14.122Z,0.00
2018-11-11T03:25:14.122Z,0.00
2018-11-11T03:26:14.111Z,0.00
2018-11-11T03:27:14.105Z,0.00
2018-11-11T03:28:14.134Z,0.00
2018-11-11T03:29:14.088Z,0.00
2018-11-11T03:30:14.096Z,0.00
2018-11-11T03:31:14.101Z,0.00
2018-11-11T03:32:14.080Z,0.00
2018-11-11T03:33:14.077Z,0.00
2018-11-11T03:34:14.072Z,0.00
2018-11-11T03:35:14.067Z,0.00
2018-11-11T03:36:14.060Z,0.00
2018-11-11T03:37:14.057Z,0.00
2018-11-11T03:38:14.065Z,0.00
2018-11-11T03:39:14.052Z,0.00
2018-11-11T03:40:14.033Z,0.00
2018-11-11T03:41:14.043Z,0.00
2018-11-11T03:42:14.031Z,0.00
2018-11-11T03:43:14.028Z,0.00
2018-11-11T03:44:14.026Z,0.00
2018-11-11T03:45:14.019Z,0.00
2018-11-11T03:46:14.030Z,0.00
2018-11-11T03:47:14.012Z,0.00
2018-11-11T03:48:13.999Z,0.00
2018-11-11T03:49:13.990Z,0.00
2018-11-11T03:50:13.992Z,0.00
2018-11-11T03:51:13.988Z,0.00
2018-11-11T03:52:13.983Z,0.00
2018-11-11T03:53:13.975Z,0.00
2018-11-11T03:54:13.974Z,0.00
2018-11-11T03:55:13.978Z,0.00
2018-11-11T03:56:13.969Z,0.00
2018-11-11T03:57:13.970Z,0.00
2018-11-11T03:58:13.948Z,0.00
2018-11-11T03:59:13.948Z,0.00
2018-11-11T04:00:13.953Z,0.00
2018-11-11T04:01:13.941Z,0.00
2018-11-11T04:02:13.929Z,0.00
2018-11-11T04:03:13.939Z,0.00
2018-11-11T04:04:13.927Z,0.00
2018-11-11T04:05:13.917Z,0.00
2018-11-11T04:06:13.918Z,0.00
2018-11-11T04:07:13.916Z,0.00
2018-11-11T04:08:13.908Z,0.00
2018-11-11T04:09:13.905Z,0.00
2018-11-11T04:10:13.905Z,0.00
2018-11-11T04:11:13.891Z,0.00
2018-11-11T04:12:13.888Z,0.00
2018-11-11T04:13:13.895Z,0.00
2018-11-11T04:14:13.894Z,0.00
2018-11-11T04:15:13.863Z,0.00
2018-11-11T04:16:13.871Z,0.00
2018-11-11T04:17:13.863Z,0.00
2018-11-11T04:18:13.868Z,0.00
2018-11-11T04:19:13.852Z,0.00
2018-11-11T04:20:13.854Z,0.00
2018-11-11T04:21:13.834Z,0.00
2018-11-11T04:22:13.836Z,0.00
2018-11-11T04:23:13.837Z,0.00
2018-11-11T04:24:13.831Z,0.00
2018-11-11T04:25:13.831Z,0.00
2018-11-11T04:26:13.819Z,0.00
2018-11-11T04:27:13.819Z,0.00
2018-11-11T04:28:13.809Z,0.00
2018-11-11T04:29:13.804Z,0.00
2018-11-11T04:30:13.806Z,0.00
2018-11-11T04:31:13.808Z,0.00
2018-11-11T04:32:13.791Z,0.00
2018-11-11T04:33:13.788Z,0.00
2018-11-11T04:34:14.629Z,0.00
2018-11-11T04:35:13.774Z,0.00
2018-11-11T04:36:13.769Z,0.00
2018-11-11T04:37:13.766Z,0.00
2018-11-11T04:38:13.763Z,0.00
2018-11-11T04:39:13.807Z,0.00
2018-11-11T04:40:13.756Z,0.00
2018-11-11T04:41:13.743Z,0.00
2018-11-11T04:42:13.745Z,0.00
2018-11-11T04:43:13.734Z,0.00
2018-11-11T04:44:13.730Z,0.00
2018-11-11T04:45:13.736Z,0.00
2018-11-11T04:46:13.780Z,0.00
2018-11-11T04:47:13.714Z,0.00
2018-11-11T04:48:13.712Z,0.00
2018-11-11T04:49:13.707Z,0.00
2018-11-11T04:50:13.702Z,0.00
2018-11-11T04:51:13.715Z,0.00
2018-11-11T04:52:13.684Z,0.00
2018-11-11T04:53:13.684Z,0.00
2018-11-11T04:54:13.682Z,0.00
2018-11-11T04:55:13.669Z,0.00
2018-11-11T04:56:13.672Z,0.00
2018-11-11T04:57:13.668Z,0.00
2018-11-11T04:58:13.658Z,0.00
2018-11-11T04:59:13.660Z,0.00
2018-11-11T05:00:13.643Z,0.00
2018-11-11T05:01:13.717Z,0.00
2018-11-11T05:02:13.640Z,0.00
2018-11-11T05:03:13.631Z,0.00
2018-11-11T05:04:13.634Z,0.00
2018-11-11T05:05:13.627Z,0.00
2018-11-11T05:06:13.644Z,0.00
2018-11-11T05:07:13.620Z,0.00
2018-11-11T05:08:13.614Z,0.00
2018-11-11T05:09:13.608Z,0.00
2018-11-11T05:10:13.648Z,0.00
2018-11-11T05:11:13.596Z,0.00
2018-11-11T05:12:13.599Z,0.00
2018-11-11T05:13:13.584Z,0.00
2018-11-11T05:14:13.607Z,0.00
2018-11-11T05:15:13.578Z,0.00
2018-11-11T05:16:13.571Z,0.00
2018-11-11T05:17:13.563Z,0.00
2018-11-11T05:18:13.556Z,0.00
2018-11-11T05:19:13.554Z,0.00
2018-11-11T05:20:13.555Z,0.00
2018-11-11T05:21:13.541Z,0.00
2018-11-11T05:22:13.538Z,0.00
2018-11-11T05:23:13.533Z,0.00
2018-11-11T05:24:13.528Z,0.00
2018-11-11T05:25:13.524Z,0.00
2018-11-11T05:26:13.522Z,0.00
2018-11-11T05:27:13.506Z,0.00
2018-11-11T05:28:13.505Z,0.00
2018-11-11T05:29:13.502Z,0.00
2018-11-11T05:30:13.495Z,0.00
2018-11-11T05:31:13.491Z,0.00
2018-11-11T05:32:13.489Z,0.00
2018-11-11T05:33:13.478Z,0.00
2018-11-11T05:34:13.472Z,0.00
2018-11-11T05:35:13.474Z,0.00
2018-11-11T05:36:13.465Z,0.00
2018-11-11T05:37:13.451Z,0.00
2018-11-11T05:38:13.457Z,0.00
2018-11-11T05:39:13.465Z,0.00
2018-11-11T05:40:13.447Z,0.00
2018-11-11T05:41:13.437Z,0.00
2018-11-11T05:42:13.438Z,0.00
2018-11-11T05:43:13.428Z,0.00
2018-11-11T05:44:13.414Z,0.00
2018-11-11T05:45:13.414Z,0.00
2018-11-11T05:46:13.415Z,0.00
2018-11-11T05:47:13.406Z,0.00
2018-11-11T05:48:13.404Z,0.00
2018-11-11T05:49:13.400Z,0.00
2018-11-11T05:50:13.391Z,0.00
2018-11-11T05:51:13.400Z,4.00
2018-11-11T05:52:13.381Z,0.00
2018-11-11T05:53:13.385Z,4.00
2018-11-11T05:54:13.374Z,4.00
2018-11-11T05:55:13.376Z,4.00
2018-11-11T05:56:13.361Z,4.00
2018-11-11T05:57:13.358Z,8.00
2018-11-11T05:58:13.349Z,12.00
2018-11-11T05:59:13.369Z,12.00
2018-11-11T06:00:13.343Z,12.00
2018-11-11T06:01:13.341Z,20.00
2018-11-11T06:02:13.324Z,20.00
2018-11-11T06:03:13.360Z,24.00
2018-11-11T06:04:13.318Z,28.00
2018-11-11T06:05:13.323Z,32.00
2018-11-11T06:06:13.316Z,32.00
2018-11-11T06:07:13.314Z,40.00
2018-11-11T06:08:13.313Z,44.00
2018-11-11T06:09:13.302Z,56.00
2018-11-11T06:10:13.298Z,68.00
2018-11-11T06:11:13.287Z,84.00
2018-11-11T06:12:13.287Z,96.00
2018-11-11T06:13:13.274Z,108.00
2018-11-11T06:14:13.291Z,116.00
2018-11-11T06:15:13.271Z,112.00
2018-11-11T06:16:13.282Z,116.00
2018-11-11T06:17:13.261Z,120.00
2018-11-11T06:18:13.264Z,132.00
2018-11-11T06:19:13.255Z,128.00
2018-11-11T06:20:14.156Z,148.00
2018-11-11T06:21:13.245Z,184.00
2018-11-11T06:22:13.241Z,228.00
2018-11-11T06:23:13.234Z,244.00
2018-11-11T06:24:13.236Z,248.00
2018-11-11T06:25:13.222Z,252.00
2018-11-11T06:26:13.224Z,252.00
2018-11-11T06:27:13.223Z,288.00
2018-11-11T06:28:13.227Z,328.00
2018-11-11T06:29:13.211Z,368.00
2018-11-11T06:30:13.199Z,436.00
2018-11-11T06:31:13.201Z,488.00
2018-11-11T06:32:13.199Z,512.00
2018-11-11T06:33:13.194Z,524.00
2018-11-11T06:34:13.287Z,528.00
2018-11-11T06:35:13.193Z,536.00
2018-11-11T06:36:13.187Z,568.00
2018-11-11T06:37:13.179Z,688.00
2018-11-11T06:38:13.174Z,844.00
2018-11-11T06:39:13.169Z,900.00
2018-11-11T06:40:13.166Z,828.00
2018-11-11T06:41:13.159Z,680.00
2018-11-11T06:42:13.152Z,600.00
2018-11-11T06:43:13.149Z,536.00
2018-11-11T06:44:13.146Z,504.00
2018-11-11T06:45:13.139Z,488.00
2018-11-11T06:46:13.150Z,492.00
2018-11-11T06:47:13.123Z,540.00
2018-11-11T06:48:13.239Z,604.00
2018-11-11T06:49:13.125Z,636.00
2018-11-11T06:50:13.127Z,648.00
2018-11-11T06:51:13.126Z,652.00
2018-11-11T06:52:13.113Z,692.00
2018-11-11T06:53:13.106Z,748.00
2018-11-11T06:54:13.101Z,784.00
2018-11-11T06:55:13.100Z,760.00
2018-11-11T06:56:13.096Z,760.00
2018-11-11T06:57:13.086Z,852.00
2018-11-11T06:58:13.187Z,1004.00
2018-11-11T06:59:13.084Z,1116.00
2018-11-11T07:00:13.080Z,1144.00
2018-11-11T07:01:13.074Z,1148.00
2018-11-11T07:02:13.072Z,1080.00
2018-11-11T07:03:13.072Z,1040.00
2018-11-11T07:04:13.072Z,1036.00
2018-11-11T07:05:13.059Z,1032.00
2018-11-11T07:06:13.131Z,1080.00
2018-11-11T07:07:13.069Z,1192.00
2018-11-11T07:08:13.047Z,1280.00
2018-11-11T07:09:13.045Z,1328.00
2018-11-11T07:10:13.049Z,1380.00
2018-11-11T07:11:13.030Z,1256.00
2018-11-11T07:12:13.028Z,1108.00
2018-11-11T07:13:13.027Z,1200.00
2018-11-11T07:14:13.181Z,1408.00
2018-11-11T07:15:13.024Z,1464.00
2018-11-11T07:16:13.004Z,1432.00
2018-11-11T07:17:13.014Z,1328.00
2018-11-11T07:18:13.010Z,1392.00
2018-11-11T07:19:12.997Z,1580.00
2018-11-11T07:20:13.004Z,1992.00
2018-11-11T07:21:12.997Z,2276.00
2018-11-11T07:22:12.994Z,2324.00
2018-11-11T07:23:12.990Z,2320.00
2018-11-11T07:24:13.072Z,2428.00
2018-11-11T07:25:12.987Z,2548.00
2018-11-11T07:26:12.979Z,2888.00
2018-11-11T07:27:13.003Z,3052.00
2018-11-11T07:28:12.971Z,3032.00
2018-11-11T07:29:12.957Z,2896.00
2018-11-11T07:30:12.965Z,3092.00
2018-11-11T07:31:12.972Z,3188.00
2018-11-11T07:32:12.955Z,2872.00
2018-11-11T07:33:12.953Z,2700.00
2018-11-11T07:34:12.950Z,2740.00
2018-11-11T07:35:12.946Z,2512.00
2018-11-11T07:36:12.964Z,2092.00
2018-11-11T07:37:12.993Z,1940.00
2018-11-11T07:38:12.935Z,2244.00
2018-11-11T07:39:12.937Z,2564.00
2018-11-11T07:40:12.954Z,2728.00
2018-11-11T07:41:12.926Z,2684.00
2018-11-11T07:42:12.928Z,2944.00
2018-11-11T07:43:12.914Z,3256.00
2018-11-11T07:44:12.916Z,3232.00
2018-11-11T07:45:12.910Z,3160.00
2018-11-11T07:46:12.909Z,3396.00
2018-11-11T07:47:12.909Z,3520.00
2018-11-11T07:48:12.895Z,3208.00
2018-11-11T07:49:12.897Z,2608.00
2018-11-11T07:50:12.896Z,2272.00
2018-11-11T07:51:12.889Z,1908.00
2018-11-11T07:52:12.891Z,1648.00
2018-11-11T07:53:12.884Z,1604.00
2018-11-11T07:54:12.883Z,1800.00
2018-11-11T07:55:12.947Z,1924.00
2018-11-11T07:56:12.875Z,2008.00
2018-11-11T07:57:12.875Z,2168.00
2018-11-11T07:58:12.881Z,2312.00
2018-11-11T07:59:12.865Z,2376.00
2018-11-11T08:00:12.861Z,2472.00
2018-11-11T08:01:12.857Z,2616.00
2018-11-11T08:02:12.892Z,2672.00
2018-11-11T08:03:12.851Z,2940.00
2018-11-11T08:04:12.847Z,3676.00
2018-11-11T08:05:12.849Z,4556.00
2018-11-11T08:06:12.841Z,5628.00
2018-11-11T08:07:12.840Z,6832.00
2018-11-11T08:08:12.837Z,8124.00
2018-11-11T08:09:12.831Z,9768.00
2018-11-11T08:10:12.826Z,10864.00
2018-11-11T08:11:12.975Z,11048.00
2018-11-11T08:12:12.822Z,11060.00
2018-11-11T08:13:12.819Z,11036.00
2018-11-11T08:14:12.817Z,10772.00
2018-11-11T08:15:12.813Z,10112.00
2018-11-11T08:16:12.807Z,9224.00
2018-11-11T08:17:12.808Z,8420.00
2018-11-11T08:18:12.804Z,7456.00
2018-11-11T08:19:12.802Z,6984.00
2018-11-11T08:20:12.817Z,7496.00
2018-11-11T08:21:12.798Z,8740.00
2018-11-11T08:22:12.798Z,11372.00
2018-11-11T08:23:12.786Z,12236.00
2018-11-11T08:24:12.791Z,12460.00
2018-11-11T08:25:12.844Z,10968.00
2018-11-11T08:26:12.783Z,8096.00
2018-11-11T08:27:12.787Z,6340.00
2018-11-11T08:28:12.775Z,5656.00
2018-11-11T08:29:12.780Z,5804.00
2018-11-11T08:30:12.783Z,6300.00
2018-11-11T08:31:12.777Z,6844.00
2018-11-11T08:32:12.791Z,7188.00
2018-11-11T08:33:12.772Z,7392.00
2018-11-11T08:34:12.759Z,7628.00
2018-11-11T08:35:12.768Z,8008.00
2018-11-11T08:36:12.763Z,8612.00
2018-11-11T08:37:12.764Z,9316.00
2018-11-11T08:38:12.756Z,9816.00
2018-11-11T08:39:12.761Z,9992.00
2018-11-11T08:40:12.773Z,9880.00
2018-11-11T08:41:12.755Z,9764.00
2018-11-11T08:42:12.746Z,9768.00
2018-11-11T08:43:12.753Z,9916.00
2018-11-11T08:44:12.750Z,10140.00
2018-11-11T08:45:12.749Z,10008.00
2018-11-11T08:46:12.747Z,9420.00
2018-11-11T08:47:12.733Z,8404.00
2018-11-11T08:48:12.896Z,7292.00
2018-11-11T08:49:12.739Z,6504.00
2018-11-11T08:50:12.741Z,5844.00
2018-11-11T08:51:12.739Z,5160.00
2018-11-11T08:52:12.732Z,4572.00
2018-11-11T08:53:12.731Z,4288.00
2018-11-11T08:54:13.698Z,4436.00
2018-11-11T08:55:12.727Z,4772.00
2018-11-11T08:56:12.727Z,5112.00
2018-11-11T08:57:12.723Z,5336.00
2018-11-11T08:58:12.833Z,5476.00
2018-11-11T08:59:12.716Z,5612.00
2018-11-11T09:00:12.714Z,5884.00
2018-11-11T09:01:12.705Z,6164.00
2018-11-11T09:02:12.706Z,5972.00
2018-11-11T09:03:12.701Z,5484.00
2018-11-11T09:04:12.706Z,5016.00
2018-11-11T09:05:12.706Z,5016.00
2018-11-11T09:06:12.700Z,5628.00
2018-11-11T09:07:12.700Z,6556.00
2018-11-11T09:08:12.725Z,7684.00
2018-11-11T09:09:12.688Z,8876.00
2018-11-11T09:10:12.720Z,9596.00
2018-11-11T09:11:12.741Z,9860.00
2018-11-11T09:12:12.681Z,10572.00
2018-11-11T09:13:12.681Z,11020.00
2018-11-11T09:14:12.677Z,10948.00
2018-11-11T09:15:12.676Z,10880.00
2018-11-11T09:16:12.665Z,11048.00
2018-11-11T09:17:12.729Z,11048.00
2018-11-11T09:18:12.668Z,11412.00
2018-11-11T09:19:12.667Z,11688.00
2018-11-11T09:20:12.652Z,11248.00
2018-11-11T09:21:12.695Z,10320.00
2018-11-11T09:22:12.657Z,10432.00
2018-11-11T09:23:12.657Z,11088.00
2018-11-11T09:24:12.681Z,11872.00
2018-11-11T09:25:12.648Z,12852.00
2018-11-11T09:26:12.648Z,13400.00
2018-11-11T09:27:12.649Z,13412.00
2018-11-11T09:28:12.640Z,14368.00
2018-11-11T09:29:12.649Z,14028.00
2018-11-11T09:30:12.690Z,14100.00
2018-11-11T09:31:12.635Z,14704.00
2018-11-11T09:32:12.635Z,15076.00
2018-11-11T09:33:12.630Z,14728.00
2018-11-11T09:34:12.629Z,13128.00
2018-11-11T09:35:12.658Z,11684.00
2018-11-11T09:36:12.629Z,11084.00
2018-11-11T09:37:12.621Z,11084.00
2018-11-11T09:38:12.624Z,11688.00
2018-11-11T09:39:12.739Z,13576.00
2018-11-11T09:40:12.625Z,14188.00
2018-11-11T09:41:12.616Z,15300.00
2018-11-11T09:42:12.614Z,15888.00
2018-11-11T09:43:12.618Z,15992.00
2018-11-11T09:44:12.612Z,12772.00
2018-11-11T09:45:12.615Z,8988.00
2018-11-11T09:46:12.608Z,8324.00
2018-11-11T09:47:12.609Z,10468.00
2018-11-11T09:48:12.606Z,12324.00
2018-11-11T09:49:12.615Z,13960.00
2018-11-11T09:50:12.604Z,14516.00
2018-11-11T09:51:12.602Z,14496.00
2018-11-11T09:52:12.603Z,16164.00
2018-11-11T09:53:12.599Z,15784.00
2018-11-11T09:54:12.629Z,17632.00
2018-11-11T09:55:12.584Z,19264.00
2018-11-11T09:56:12.592Z,19712.00
2018-11-11T09:57:12.592Z,20416.00
2018-11-11T09:58:12.588Z,16696.00
2018-11-11T09:59:12.629Z,18368.00
2018-11-11T10:00:12.591Z,20288.00
2018-11-11T10:01:12.590Z,19360.00
2018-11-11T10:02:12.582Z,24576.00
2018-11-11T10:03:12.582Z,22720.00
2018-11-11T10:04:12.579Z,18432.00
2018-11-11T10:05:12.583Z,17536.00
2018-11-11T10:06:12.587Z,17824.00
2018-11-11T10:07:12.591Z,18528.00
2018-11-11T10:08:12.574Z,21440.00
2018-11-11T10:09:12.571Z,21696.00
2018-11-11T10:10:12.570Z,17504.00
2018-11-11T10:11:12.571Z,17472.00
2018-11-11T10:12:12.632Z,17344.00
2018-11-11T10:13:12.571Z,18624.00
2018-11-11T10:14:12.604Z,17216.00
2018-11-11T10:15:12.569Z,18720.00
2018-11-11T10:16:12.569Z,20192.00
2018-11-11T10:17:12.572Z,18048.00
2018-11-11T10:18:12.569Z,18528.00
2018-11-11T10:19:12.567Z,20736.00
2018-11-11T10:20:12.582Z,19392.00
2018-11-11T10:21:12.575Z,18272.00
2018-11-11T10:22:12.569Z,17792.00
2018-11-11T10:23:12.593Z,15716.00
2018-11-11T10:24:12.578Z,13992.00
2018-11-11T10:25:12.592Z,13640.00
2018-11-11T10:26:12.573Z,12088.00
2018-11-11T10:27:12.636Z,11756.00
2018-11-11T10:28:12.569Z,9716.00
2018-11-11T10:29:12.639Z,11004.00
2018-11-11T10:30:12.573Z,14028.00
2018-11-11T10:31:12.569Z,16960.00
2018-11-11T10:32:12.571Z,13516.00
2018-11-11T10:33:12.571Z,13640.00
2018-11-11T10:34:12.568Z,14040.00
2018-11-11T10:35:12.566Z,15080.00
2018-11-11T10:36:12.567Z,15816.00
2018-11-11T10:37:12.571Z,19168.00
2018-11-11T10:38:12.564Z,17952.00
2018-11-11T10:39:12.599Z,17440.00
2018-11-11T10:40:12.559Z,17568.00
2018-11-11T10:41:12.557Z,16892.00
2018-11-11T10:42:12.558Z,15476.00
2018-11-11T10:43:12.543Z,13984.00
2018-11-11T10:44:12.555Z,12952.00
2018-11-11T10:45:12.553Z,11816.00
2018-11-11T10:46:12.556Z,11492.00
2018-11-11T10:47:12.549Z,11964.00
2018-11-11T10:48:12.546Z,12744.00
2018-11-11T10:49:12.544Z,13024.00
2018-11-11T10:50:12.540Z,13276.00
2018-11-11T10:51:12.544Z,13400.00
2018-11-11T10:52:12.539Z,13776.00
2018-11-11T10:53:12.529Z,14100.00
2018-11-11T10:54:12.593Z,14772.00
2018-11-11T10:55:12.541Z,14904.00
2018-11-11T10:56:12.533Z,15240.00
2018-11-11T10:57:12.534Z,15036.00
2018-11-11T10:58:12.530Z,15416.00
2018-11-11T10:59:12.544Z,16160.00
2018-11-11T11:00:12.590Z,16540.00
2018-11-11T11:01:12.526Z,16948.00
2018-11-11T11:02:12.534Z,17152.00
2018-11-11T11:03:12.522Z,18272.00
2018-11-11T11:04:12.520Z,18304.00
2018-11-11T11:05:12.515Z,22592.00
2018-11-11T11:06:12.567Z,24512.00
2018-11-11T11:07:12.514Z,24768.00
2018-11-11T11:08:12.535Z,25024.00
2018-11-11T11:09:12.513Z,20640.00
2018-11-11T11:10:12.512Z,20160.00
2018-11-11T11:11:12.513Z,23104.00
2018-11-11T11:12:12.514Z,21472.00
2018-11-11T11:13:12.533Z,19808.00
2018-11-11T11:14:12.579Z,21248.00
2018-11-11T11:15:12.518Z,24128.00
2018-11-11T11:16:12.518Z,25568.00
2018-11-11T11:17:12.518Z,23872.00
2018-11-11T11:18:12.537Z,20128.00
2018-11-11T11:19:12.521Z,19072.00
2018-11-11T11:20:12.531Z,21568.00
2018-11-11T11:21:12.529Z,22688.00
2018-11-11T11:22:12.529Z,21760.00
2018-11-11T11:23:12.542Z,20416.00
2018-11-11T11:24:12.539Z,21408.00
2018-11-11T11:25:12.557Z,19232.00
2018-11-11T11:26:12.548Z,19072.00
2018-11-11T11:27:12.591Z,17856.00
2018-11-11T11:28:12.558Z,16960.00
2018-11-11T11:29:12.559Z,16608.00
2018-11-11T11:30:12.567Z,15728.00
2018-11-11T11:31:12.575Z,17120.00
2018-11-11T11:32:12.765Z,15292.00
2018-11-11T11:33:12.588Z,16296.00
2018-11-11T11:34:12.585Z,12260.00
2018-11-11T11:35:12.621Z,11112.00
2018-11-11T11:36:12.591Z,11380.00
2018-11-11T11:37:12.590Z,12976.00
2018-11-11T11:38:12.627Z,17536.00
2018-11-11T11:39:12.606Z,21504.00
2018-11-11T11:40:12.609Z,20192.00
2018-11-11T11:41:12.618Z,16992.00
2018-11-11T11:42:12.617Z,12172.00
2018-11-11T11:43:13.232Z,12104.00
2018-11-11T11:44:12.712Z,10368.00
2018-11-11T11:45:12.625Z,12528.00
2018-11-11T11:46:12.629Z,17376.00
2018-11-11T11:47:12.689Z,18560.00
2018-11-11T11:48:12.632Z,14608.00
2018-11-11T11:49:12.636Z,11828.00
2018-11-11T11:50:12.697Z,10596.00
2018-11-11T11:51:12.640Z,10380.00
2018-11-11T11:52:12.663Z,12660.00
2018-11-11T11:53:12.649Z,15920.00
2018-11-11T11:54:12.657Z,14308.00
2018-11-11T11:55:12.654Z,11024.00
2018-11-11T11:56:12.656Z,9376.00
2018-11-11T11:57:12.652Z,8912.00
2018-11-11T11:58:12.736Z,8672.00
2018-11-11T11:59:12.666Z,8620.00
2018-11-11T12:00:12.672Z,8492.00
2018-11-11T12:01:12.677Z,8472.00
2018-11-11T12:02:12.695Z,8388.00
2018-11-11T12:03:12.688Z,8304.00
2018-11-11T12:04:12.701Z,8320.00
2018-11-11T12:05:12.694Z,8364.00
2018-11-11T12:06:12.695Z,8376.00
2018-11-11T12:07:12.703Z,8340.00
2018-11-11T12:08:12.712Z,8300.00
2018-11-11T12:09:12.770Z,8276.00
2018-11-11T12:10:12.714Z,8380.00
2018-11-11T12:11:12.710Z,8424.00
2018-11-11T12:12:12.719Z,8352.00
2018-11-11T12:13:12.728Z,8288.00
2018-11-11T12:14:12.729Z,8324.00
2018-11-11T12:15:12.733Z,8320.00
2018-11-11T12:16:12.735Z,8288.00
2018-11-11T12:17:12.784Z,8012.00
2018-11-11T12:18:12.749Z,7696.00
2018-11-11T12:19:12.759Z,7384.00
2018-11-11T12:20:12.753Z,7112.00
2018-11-11T12:21:12.757Z,6764.00
2018-11-11T12:22:12.765Z,6356.00
2018-11-11T12:23:12.801Z,5508.00
2018-11-11T12:24:12.770Z,4880.00
2018-11-11T12:25:12.772Z,4672.00
2018-11-11T12:26:12.776Z,4496.00
2018-11-11T12:27:12.773Z,4368.00
2018-11-11T12:28:12.778Z,4292.00
2018-11-11T12:29:12.781Z,4248.00
2018-11-11T12:30:12.846Z,4276.00
2018-11-11T12:31:12.789Z,4312.00
2018-11-11T12:32:12.783Z,4384.00
2018-11-11T12:33:12.783Z,4420.00
2018-11-11T12:34:12.783Z,4508.00
2018-11-11T12:35:12.826Z,4968.00